sensor_id;sensor_type;location;lat;lon;timestamp;temperature;humidity
4739;DHT22;2383;48.632;10.156;2023-03-05T00:03:38;2.00;90.80
4739;DHT22;2383;48.632;10.156;2023-03-05T00:07:40;1.40;91.10
4739;DHT22;2383;48.632;10.156;2023-03-05T00:11:42;1.70;91.00
4739;DHT22;2383;48.632;10.156;2023-03-05T00:15:44;1.90;91.00
4739;DHT22;2383;48.632;10.156;2023-03-05T00:19:46;2.00;90.90
4739;DHT22;2383;48.632;10.156;2023-03-05T00:23:48;2.20;90.60
4739;DHT22;2383;48.632;10.156;2023-03-05T00:27:51;2.20;90.80
4739;DHT22;2383;48.632;10.156;2023-03-05T00:31:53;2.20;90.50
4739;DHT22;2383;48.632;10.156;2023-03-05T00:35:55;2.40;90.50
4739;DHT22;2383;48.632;10.156;2023-03-05T00:39:57;2.30;90.40
4739;DHT22;2383;48.632;10.156;2023-03-05T00:43:59;2.30;90.40
4739;DHT22;2383;48.632;10.156;2023-03-05T00:48:02;2.30;90.30
4739;DHT22;2383;48.632;10.156;2023-03-05T00:52:04;2.40;90.40
4739;DHT22;2383;48.632;10.156;2023-03-05T00:56:06;2.10;90.60
4739;DHT22;2383;48.632;10.156;2023-03-05T01:00:09;2.30;90.50
4739;DHT22;2383;48.632;10.156;2023-03-05T01:04:11;2.40;90.40
4739;DHT22;2383;48.632;10.156;2023-03-05T01:08:14;2.30;90.50
4739;DHT22;2383;48.632;10.156;2023-03-05T01:12:17;2.20;90.50
4739;DHT22;2383;48.632;10.156;2023-03-05T01:16:19;2.30;90.60
4739;DHT22;2383;48.632;10.156;2023-03-05T01:20:21;2.30;90.50
4739;DHT22;2383;48.632;10.156;2023-03-05T01:24:23;2.10;90.80
4739;DHT22;2383;48.632;10.156;2023-03-05T01:28:26;2.00;91.00
4739;DHT22;2383;48.632;10.156;2023-03-05T01:32:28;1.50;91.30
4739;DHT22;2383;48.632;10.156;2023-03-05T01:36:30;1.80;91.30
4739;DHT22;2383;48.632;10.156;2023-03-05T01:40:32;2.10;91.00
4739;DHT22;2383;48.632;10.156;2023-03-05T01:44:34;1.90;91.00
4739;DHT22;2383;48.632;10.156;2023-03-05T01:48:37;2.10;91.00
4739;DHT22;2383;48.632;10.156;2023-03-05T01:52:43;2.10;91.10
4739;DHT22;2383;48.632;10.156;2023-03-05T01:56:49;2.20;91.00
4739;DHT22;2383;48.632;10.156;2023-03-05T02:00:54;2.40;90.80
4739;DHT22;2383;48.632;10.156;2023-03-05T02:05:06;2.30;90.70
4739;DHT22;2383;48.632;10.156;2023-03-05T02:09:10;2.40;90.80
4739;DHT22;2383;48.632;10.156;2023-03-05T02:13:27;2.50;90.80
4739;DHT22;2383;48.632;10.156;2023-03-05T02:17:30;2.40;90.90
4739;DHT22;2383;48.632;10.156;2023-03-05T02:21:41;2.60;90.90
4739;DHT22;2383;48.632;10.156;2023-03-05T02:25:44;2.50;90.70
4739;DHT22;2383;48.632;10.156;2023-03-05T02:29:45;2.50;90.70
4739;DHT22;2383;48.632;10.156;2023-03-05T02:33:48;2.50;90.80
4739;DHT22;2383;48.632;10.156;2023-03-05T02:37:52;2.50;90.80
4739;DHT22;2383;48.632;10.156;2023-03-05T02:41:54;2.50;90.80
4739;DHT22;2383;48.632;10.156;2023-03-05T02:45:56;2.30;90.90
4739;DHT22;2383;48.632;10.156;2023-03-05T02:49:58;2.20;91.00
4739;DHT22;2383;48.632;10.156;2023-03-05T02:54:00;2.10;91.10
4739;DHT22;2383;48.632;10.156;2023-03-05T02:58:03;2.20;91.10
4739;DHT22;2383;48.632;10.156;2023-03-05T03:02:05;2.30;91.10
4739;DHT22;2383;48.632;10.156;2023-03-05T03:06:07;2.50;91.20
4739;DHT22;2383;48.632;10.156;2023-03-05T03:10:09;2.50;91.00
4739;DHT22;2383;48.632;10.156;2023-03-05T03:14:11;2.20;91.20
4739;DHT22;2383;48.632;10.156;2023-03-05T03:18:13;2.20;91.50
4739;DHT22;2383;48.632;10.156;2023-03-05T03:22:15;2.00;91.90
4739;DHT22;2383;48.632;10.156;2023-03-05T03:26:17;1.90;92.20
4739;DHT22;2383;48.632;10.156;2023-03-05T03:30:19;1.90;92.10
4739;DHT22;2383;48.632;10.156;2023-03-05T03:34:21;2.00;92.30
4739;DHT22;2383;48.632;10.156;2023-03-05T03:38:23;1.80;92.40
4739;DHT22;2383;48.632;10.156;2023-03-05T03:42:25;1.90;92.10
4739;DHT22;2383;48.632;10.156;2023-03-05T03:46:27;2.10;92.10
4739;DHT22;2383;48.632;10.156;2023-03-05T03:50:29;2.00;92.30
4739;DHT22;2383;48.632;10.156;2023-03-05T03:54:32;2.10;92.10
4739;DHT22;2383;48.632;10.156;2023-03-05T03:58:33;2.10;92.10
4739;DHT22;2383;48.632;10.156;2023-03-05T04:02:36;2.00;92.00
4739;DHT22;2383;48.632;10.156;2023-03-05T04:06:38;2.20;92.10
4739;DHT22;2383;48.632;10.156;2023-03-05T04:10:40;1.80;92.20
4739;DHT22;2383;48.632;10.156;2023-03-05T04:14:43;2.10;92.20
4739;DHT22;2383;48.632;10.156;2023-03-05T04:18:45;2.20;92.20
4739;DHT22;2383;48.632;10.156;2023-03-05T04:22:47;2.30;92.10
4739;DHT22;2383;48.632;10.156;2023-03-05T04:26:49;2.30;92.00
4739;DHT22;2383;48.632;10.156;2023-03-05T04:30:51;2.30;92.00
4739;DHT22;2383;48.632;10.156;2023-03-05T04:34:53;2.10;92.30
4739;DHT22;2383;48.632;10.156;2023-03-05T04:38:55;2.30;92.40
4739;DHT22;2383;48.632;10.156;2023-03-05T04:42:57;2.30;92.30
4739;DHT22;2383;48.632;10.156;2023-03-05T04:46:59;2.40;92.20
4739;DHT22;2383;48.632;10.156;2023-03-05T04:51:00;2.20;92.00
4739;DHT22;2383;48.632;10.156;2023-03-05T04:55:02;2.30;92.00
4739;DHT22;2383;48.632;10.156;2023-03-05T04:59:04;2.10;92.10
4739;DHT22;2383;48.632;10.156;2023-03-05T05:03:06;2.30;91.90
4739;DHT22;2383;48.632;10.156;2023-03-05T05:07:08;2.10;91.90
4739;DHT22;2383;48.632;10.156;2023-03-05T05:11:12;2.30;92.00
4739;DHT22;2383;48.632;10.156;2023-03-05T05:15:15;2.40;92.20
4739;DHT22;2383;48.632;10.156;2023-03-05T05:19:17;2.30;92.00
4739;DHT22;2383;48.632;10.156;2023-03-05T05:23:18;2.20;91.90
4739;DHT22;2383;48.632;10.156;2023-03-05T05:27:21;1.50;92.40
4739;DHT22;2383;48.632;10.156;2023-03-05T05:31:23;1.20;92.90
4739;DHT22;2383;48.632;10.156;2023-03-05T05:35:25;1.80;92.70
4739;DHT22;2383;48.632;10.156;2023-03-05T05:39:27;1.80;92.80
4739;DHT22;2383;48.632;10.156;2023-03-05T05:43:29;1.80;92.70
4739;DHT22;2383;48.632;10.156;2023-03-05T05:47:31;1.40;92.40
4739;DHT22;2383;48.632;10.156;2023-03-05T05:51:33;1.70;92.70
4739;DHT22;2383;48.632;10.156;2023-03-05T05:55:35;1.80;92.70
4739;DHT22;2383;48.632;10.156;2023-03-05T05:59:40;1.50;92.60
4739;DHT22;2383;48.632;10.156;2023-03-05T06:03:42;1.70;93.00
4739;DHT22;2383;48.632;10.156;2023-03-05T06:07:43;2.00;92.50
4739;DHT22;2383;48.632;10.156;2023-03-05T06:11:45;2.10;92.20
4739;DHT22;2383;48.632;10.156;2023-03-05T06:15:57;2.10;92.20
4739;DHT22;2383;48.632;10.156;2023-03-05T06:19:59;1.90;92.30
4739;DHT22;2383;48.632;10.156;2023-03-05T06:24:01;1.20;93.00
4739;DHT22;2383;48.632;10.156;2023-03-05T06:28:04;1.50;92.80
4739;DHT22;2383;48.632;10.156;2023-03-05T06:32:06;1.70;92.60
4739;DHT22;2383;48.632;10.156;2023-03-05T06:36:11;1.60;92.50
4739;DHT22;2383;48.632;10.156;2023-03-05T06:40:14;1.60;92.60
4739;DHT22;2383;48.632;10.156;2023-03-05T06:44:15;0.90;93.40
4739;DHT22;2383;48.632;10.156;2023-03-05T06:48:17;0.70;93.50
4739;DHT22;2383;48.632;10.156;2023-03-05T06:52:20;0.80;93.60
4739;DHT22;2383;48.632;10.156;2023-03-05T06:56:22;1.00;93.50
4739;DHT22;2383;48.632;10.156;2023-03-05T07:00:24;0.80;93.90
4739;DHT22;2383;48.632;10.156;2023-03-05T07:04:30;0.50;94.20
4739;DHT22;2383;48.632;10.156;2023-03-05T07:08:32;0.30;94.50
4739;DHT22;2383;48.632;10.156;2023-03-05T07:12:34;0.70;94.40
4739;DHT22;2383;48.632;10.156;2023-03-05T07:16:36;0.90;94.30
4739;DHT22;2383;48.632;10.156;2023-03-05T07:20:38;1.10;94.30
4739;DHT22;2383;48.632;10.156;2023-03-05T07:24:40;1.30;94.00
4739;DHT22;2383;48.632;10.156;2023-03-05T07:28:42;1.20;93.90
4739;DHT22;2383;48.632;10.156;2023-03-05T07:32:44;1.50;93.90
4739;DHT22;2383;48.632;10.156;2023-03-05T07:36:49;1.50;93.60
4739;DHT22;2383;48.632;10.156;2023-03-05T07:40:51;1.50;93.80
4739;DHT22;2383;48.632;10.156;2023-03-05T07:44:53;1.60;93.50
4739;DHT22;2383;48.632;10.156;2023-03-05T07:48:56;1.50;93.70
4739;DHT22;2383;48.632;10.156;2023-03-05T07:52:58;1.30;93.60
4739;DHT22;2383;48.632;10.156;2023-03-05T07:57:00;1.10;94.10
4739;DHT22;2383;48.632;10.156;2023-03-05T08:01:02;1.20;94.10
4739;DHT22;2383;48.632;10.156;2023-03-05T08:05:04;0.60;94.70
4739;DHT22;2383;48.632;10.156;2023-03-05T08:09:06;0.90;94.50
4739;DHT22;2383;48.632;10.156;2023-03-05T08:13:08;1.10;94.40
4739;DHT22;2383;48.632;10.156;2023-03-05T08:17:11;1.20;94.10
4739;DHT22;2383;48.632;10.156;2023-03-05T08:21:22;1.60;93.90
4739;DHT22;2383;48.632;10.156;2023-03-05T08:25:24;1.50;93.70
4739;DHT22;2383;48.632;10.156;2023-03-05T08:29:26;1.80;93.40
4739;DHT22;2383;48.632;10.156;2023-03-05T08:33:28;1.90;93.80
4739;DHT22;2383;48.632;10.156;2023-03-05T08:37:32;1.90;93.30
4739;DHT22;2383;48.632;10.156;2023-03-05T08:41:34;2.30;93.10
4739;DHT22;2383;48.632;10.156;2023-03-05T08:45:38;2.10;93.00
4739;DHT22;2383;48.632;10.156;2023-03-05T08:49:40;2.40;92.80
4739;DHT22;2383;48.632;10.156;2023-03-05T08:53:43;2.10;93.00
4739;DHT22;2383;48.632;10.156;2023-03-05T08:57:45;2.30;92.90
4739;DHT22;2383;48.632;10.156;2023-03-05T09:01:47;1.80;93.10
4739;DHT22;2383;48.632;10.156;2023-03-05T09:05:50;1.90;92.90
4739;DHT22;2383;48.632;10.156;2023-03-05T09:09:52;1.90;93.20
4739;DHT22;2383;48.632;10.156;2023-03-05T09:13:54;2.10;93.10
4739;DHT22;2383;48.632;10.156;2023-03-05T09:17:55;2.00;93.00
4739;DHT22;2383;48.632;10.156;2023-03-05T09:21:58;2.00;92.70
4739;DHT22;2383;48.632;10.156;2023-03-05T09:26:00;1.80;93.30
4739;DHT22;2383;48.632;10.156;2023-03-05T09:30:04;1.90;93.10
4739;DHT22;2383;48.632;10.156;2023-03-05T09:34:06;2.40;92.60
4739;DHT22;2383;48.632;10.156;2023-03-05T09:38:09;2.50;92.20
4739;DHT22;2383;48.632;10.156;2023-03-05T09:46:50;2.90;91.90
4739;DHT22;2383;48.632;10.156;2023-03-05T09:50:59;2.70;92.20
4739;DHT22;2383;48.632;10.156;2023-03-05T09:55:02;3.00;91.70
4739;DHT22;2383;48.632;10.156;2023-03-05T09:59:26;2.90;91.60
4739;DHT22;2383;48.632;10.156;2023-03-05T10:03:48;3.10;91.40
4739;DHT22;2383;48.632;10.156;2023-03-05T10:07:59;3.30;91.30
4739;DHT22;2383;48.632;10.156;2023-03-05T10:16:39;3.00;91.10
4739;DHT22;2383;48.632;10.156;2023-03-05T10:21:03;2.70;91.60
4739;DHT22;2383;48.632;10.156;2023-03-05T10:30:03;3.20;91.00
4739;DHT22;2383;48.632;10.156;2023-03-05T10:56:21;3.60;90.00
4739;DHT22;2383;48.632;10.156;2023-03-05T11:00:26;3.80;89.80
4739;DHT22;2383;48.632;10.156;2023-03-05T11:04:29;4.00;88.70
4739;DHT22;2383;48.632;10.156;2023-03-05T11:08:36;3.70;89.60
4739;DHT22;2383;48.632;10.156;2023-03-05T11:12:38;3.70;88.80
4739;DHT22;2383;48.632;10.156;2023-03-05T11:16:48;3.60;88.50
4739;DHT22;2383;48.632;10.156;2023-03-05T11:20:51;3.50;89.30
4739;DHT22;2383;48.632;10.156;2023-03-05T11:25:12;3.40;88.60
4739;DHT22;2383;48.632;10.156;2023-03-05T11:29:21;3.30;88.90
4739;DHT22;2383;48.632;10.156;2023-03-05T11:33:23;3.20;88.90
4739;DHT22;2383;48.632;10.156;2023-03-05T11:37:30;3.30;88.90
4739;DHT22;2383;48.632;10.156;2023-03-05T11:41:47;3.10;89.00
4739;DHT22;2383;48.632;10.156;2023-03-05T11:45:53;3.10;88.70
4739;DHT22;2383;48.632;10.156;2023-03-05T11:59:26;3.10;88.00
4739;DHT22;2383;48.632;10.156;2023-03-05T12:03:34;2.90;88.80
4739;DHT22;2383;48.632;10.156;2023-03-05T12:07:40;3.20;88.30
4739;DHT22;2383;48.632;10.156;2023-03-05T12:11:44;3.40;87.60
4739;DHT22;2383;48.632;10.156;2023-03-05T12:25:24;3.10;87.10
4739;DHT22;2383;48.632;10.156;2023-03-05T12:33:44;2.90;87.40
4739;DHT22;2383;48.632;10.156;2023-03-05T12:41:51;2.40;88.10
4739;DHT22;2383;48.632;10.156;2023-03-05T12:46:25;3.00;87.20
4739;DHT22;2383;48.632;10.156;2023-03-05T12:58:52;3.50;85.00
4739;DHT22;2383;48.632;10.156;2023-03-05T13:02:56;3.40;85.30
4739;DHT22;2383;48.632;10.156;2023-03-05T13:07:13;2.80;86.10
4739;DHT22;2383;48.632;10.156;2023-03-05T13:11:19;3.10;86.30
4739;DHT22;2383;48.632;10.156;2023-03-05T13:15:23;2.50;86.30
4739;DHT22;2383;48.632;10.156;2023-03-05T13:19:34;2.80;86.90
4739;DHT22;2383;48.632;10.156;2023-03-05T13:23:36;3.20;85.90
4739;DHT22;2383;48.632;10.156;2023-03-05T13:27:38;3.30;85.20
4739;DHT22;2383;48.632;10.156;2023-03-05T13:35:49;3.40;85.70
4739;DHT22;2383;48.632;10.156;2023-03-05T13:39:57;3.50;85.30
4739;DHT22;2383;48.632;10.156;2023-03-05T13:44:01;3.70;85.00
4739;DHT22;2383;48.632;10.156;2023-03-05T13:48:04;3.60;84.00
4739;DHT22;2383;48.632;10.156;2023-03-05T13:52:07;3.50;84.80
4739;DHT22;2383;48.632;10.156;2023-03-05T13:56:15;3.40;84.50
4739;DHT22;2383;48.632;10.156;2023-03-05T14:04:37;3.60;84.70
4739;DHT22;2383;48.632;10.156;2023-03-05T14:08:42;3.20;85.00
4739;DHT22;2383;48.632;10.156;2023-03-05T14:12:43;3.40;85.30
4739;DHT22;2383;48.632;10.156;2023-03-05T14:16:45;3.30;84.70
4739;DHT22;2383;48.632;10.156;2023-03-05T14:25:04;3.40;85.10
4739;DHT22;2383;48.632;10.156;2023-03-05T14:33:11;3.60;85.70
4739;DHT22;2383;48.632;10.156;2023-03-05T14:37:28;3.50;85.50
4739;DHT22;2383;48.632;10.156;2023-03-05T14:41:37;3.60;85.90
4739;DHT22;2383;48.632;10.156;2023-03-05T14:45:41;3.60;85.60
4739;DHT22;2383;48.632;10.156;2023-03-05T14:49:47;3.90;85.50
4739;DHT22;2383;48.632;10.156;2023-03-05T14:53:49;3.90;85.10
4739;DHT22;2383;48.632;10.156;2023-03-05T14:57:56;3.70;85.60
4739;DHT22;2383;48.632;10.156;2023-03-05T15:02:00;3.70;85.90
4739;DHT22;2383;48.632;10.156;2023-03-05T15:06:02;3.70;85.90
4739;DHT22;2383;48.632;10.156;2023-03-05T15:10:05;3.60;86.10
4739;DHT22;2383;48.632;10.156;2023-03-05T15:14:09;3.70;86.50
4739;DHT22;2383;48.632;10.156;2023-03-05T15:18:17;3.80;86.30
4739;DHT22;2383;48.632;10.156;2023-03-05T15:22:20;3.80;86.30
4739;DHT22;2383;48.632;10.156;2023-03-05T15:26:22;3.70;86.10
4739;DHT22;2383;48.632;10.156;2023-03-05T15:34:28;3.60;87.40
4739;DHT22;2383;48.632;10.156;2023-03-05T15:38:29;3.40;87.50
4739;DHT22;2383;48.632;10.156;2023-03-05T15:42:31;3.50;87.10
4739;DHT22;2383;48.632;10.156;2023-03-05T15:46:34;3.40;87.90
4739;DHT22;2383;48.632;10.156;2023-03-05T15:50:39;3.50;88.00
4739;DHT22;2383;48.632;10.156;2023-03-05T15:54:43;3.60;87.70
4739;DHT22;2383;48.632;10.156;2023-03-05T15:58:48;3.50;87.90
4739;DHT22;2383;48.632;10.156;2023-03-05T16:02:50;3.50;88.00
4739;DHT22;2383;48.632;10.156;2023-03-05T16:06:52;3.50;88.20
4739;DHT22;2383;48.632;10.156;2023-03-05T16:10:54;3.40;88.20
4739;DHT22;2383;48.632;10.156;2023-03-05T16:14:56;3.50;88.20
4739;DHT22;2383;48.632;10.156;2023-03-05T16:18:59;3.60;88.10
4739;DHT22;2383;48.632;10.156;2023-03-05T16:23:02;3.60;88.00
4739;DHT22;2383;48.632;10.156;2023-03-05T16:27:05;3.60;88.20
4739;DHT22;2383;48.632;10.156;2023-03-05T16:31:07;3.70;88.10
4739;DHT22;2383;48.632;10.156;2023-03-05T16:35:09;3.50;88.90
4739;DHT22;2383;48.632;10.156;2023-03-05T16:39:13;3.50;88.80
4739;DHT22;2383;48.632;10.156;2023-03-05T16:43:14;3.60;88.80
4739;DHT22;2383;48.632;10.156;2023-03-05T16:47:16;3.60;88.50
4739;DHT22;2383;48.632;10.156;2023-03-05T16:51:19;3.60;88.50
4739;DHT22;2383;48.632;10.156;2023-03-05T16:55:21;3.50;89.00
4739;DHT22;2383;48.632;10.156;2023-03-05T16:59:24;3.50;89.00
4739;DHT22;2383;48.632;10.156;2023-03-05T17:03:26;3.50;88.90
4739;DHT22;2383;48.632;10.156;2023-03-05T17:07:28;3.50;89.00
4739;DHT22;2383;48.632;10.156;2023-03-05T17:11:30;3.40;89.00
4739;DHT22;2383;48.632;10.156;2023-03-05T17:15:33;3.40;89.00
4739;DHT22;2383;48.632;10.156;2023-03-05T17:19:34;3.40;89.20
4739;DHT22;2383;48.632;10.156;2023-03-05T17:23:37;3.60;89.60
4739;DHT22;2383;48.632;10.156;2023-03-05T17:27:39;3.70;88.90
4739;DHT22;2383;48.632;10.156;2023-03-05T17:31:41;3.70;89.00
4739;DHT22;2383;48.632;10.156;2023-03-05T17:35:43;3.60;89.00
4739;DHT22;2383;48.632;10.156;2023-03-05T17:39:48;3.30;88.70
4739;DHT22;2383;48.632;10.156;2023-03-05T17:43:50;3.10;89.50
4739;DHT22;2383;48.632;10.156;2023-03-05T17:47:52;3.40;90.00
4739;DHT22;2383;48.632;10.156;2023-03-05T17:51:55;3.20;90.00
4739;DHT22;2383;48.632;10.156;2023-03-05T17:55:57;3.30;89.80
4739;DHT22;2383;48.632;10.156;2023-03-05T17:59:59;3.00;90.10
4739;DHT22;2383;48.632;10.156;2023-03-05T18:04:01;3.20;90.00
4739;DHT22;2383;48.632;10.156;2023-03-05T18:08:03;3.10;89.80
4739;DHT22;2383;48.632;10.156;2023-03-05T18:12:05;3.00;89.70
4739;DHT22;2383;48.632;10.156;2023-03-05T18:16:08;2.70;90.40
4739;DHT22;2383;48.632;10.156;2023-03-05T18:20:33;2.60;90.70
4739;DHT22;2383;48.632;10.156;2023-03-05T18:24:36;2.70;90.50
4739;DHT22;2383;48.632;10.156;2023-03-05T18:28:38;3.10;90.30
4739;DHT22;2383;48.632;10.156;2023-03-05T18:32:40;3.00;90.10
4739;DHT22;2383;48.632;10.156;2023-03-05T18:36:42;2.90;89.50
4739;DHT22;2383;48.632;10.156;2023-03-05T18:40:44;2.90;89.40
4739;DHT22;2383;48.632;10.156;2023-03-05T18:44:47;2.90;89.50
4739;DHT22;2383;48.632;10.156;2023-03-05T18:48:49;3.00;89.30
4739;DHT22;2383;48.632;10.156;2023-03-05T18:52:51;3.00;89.40
4739;DHT22;2383;48.632;10.156;2023-03-05T18:56:54;3.00;88.90
4739;DHT22;2383;48.632;10.156;2023-03-05T19:00:56;3.00;89.20
4739;DHT22;2383;48.632;10.156;2023-03-05T19:04:58;2.90;88.50
4739;DHT22;2383;48.632;10.156;2023-03-05T19:09:00;2.40;88.90
4739;DHT22;2383;48.632;10.156;2023-03-05T19:17:35;2.80;88.40
4739;DHT22;2383;48.632;10.156;2023-03-05T19:21:37;2.90;87.70
4739;DHT22;2383;48.632;10.156;2023-03-05T19:25:40;2.80;87.50
4739;DHT22;2383;48.632;10.156;2023-03-05T19:29:42;2.20;87.10
4739;DHT22;2383;48.632;10.156;2023-03-05T19:33:44;2.30;87.80
4739;DHT22;2383;48.632;10.156;2023-03-05T19:37:46;2.60;87.70
4739;DHT22;2383;48.632;10.156;2023-03-05T19:41:48;2.70;86.60
4739;DHT22;2383;48.632;10.156;2023-03-05T19:45:50;2.20;87.60
4739;DHT22;2383;48.632;10.156;2023-03-05T19:49:52;2.40;87.60
4739;DHT22;2383;48.632;10.156;2023-03-05T19:53:54;2.50;87.20
4739;DHT22;2383;48.632;10.156;2023-03-05T19:57:55;2.80;86.70
4739;DHT22;2383;48.632;10.156;2023-03-05T20:01:57;2.90;87.00
4739;DHT22;2383;48.632;10.156;2023-03-05T20:05:59;2.80;87.00
4739;DHT22;2383;48.632;10.156;2023-03-05T20:10:01;2.90;86.60
4739;DHT22;2383;48.632;10.156;2023-03-05T20:14:03;2.90;86.50
4739;DHT22;2383;48.632;10.156;2023-03-05T20:18:05;2.70;86.40
4739;DHT22;2383;48.632;10.156;2023-03-05T20:22:10;2.70;87.10
4739;DHT22;2383;48.632;10.156;2023-03-05T20:26:12;2.80;87.10
4739;DHT22;2383;48.632;10.156;2023-03-05T20:30:15;2.70;87.50
4739;DHT22;2383;48.632;10.156;2023-03-05T20:34:18;2.60;87.70
4739;DHT22;2383;48.632;10.156;2023-03-05T20:38:25;2.70;87.70
4739;DHT22;2383;48.632;10.156;2023-03-05T20:42:30;2.30;87.50
4739;DHT22;2383;48.632;10.156;2023-03-05T20:46:35;2.50;87.20
4739;DHT22;2383;48.632;10.156;2023-03-05T20:50:37;2.50;86.90
4739;DHT22;2383;48.632;10.156;2023-03-05T20:54:41;2.50;86.70
4739;DHT22;2383;48.632;10.156;2023-03-05T20:58:43;2.20;87.30
4739;DHT22;2383;48.632;10.156;2023-03-05T21:02:45;1.80;88.50
4739;DHT22;2383;48.632;10.156;2023-03-05T21:06:51;2.10;88.30
4739;DHT22;2383;48.632;10.156;2023-03-05T21:10:53;2.20;88.50
4739;DHT22;2383;48.632;10.156;2023-03-05T21:14:55;2.20;88.40
4739;DHT22;2383;48.632;10.156;2023-03-05T21:18:57;2.30;88.80
4739;DHT22;2383;48.632;10.156;2023-03-05T21:22:59;2.40;88.20
4739;DHT22;2383;48.632;10.156;2023-03-05T21:27:01;2.60;88.20
4739;DHT22;2383;48.632;10.156;2023-03-05T21:31:08;2.60;87.80
4739;DHT22;2383;48.632;10.156;2023-03-05T21:35:20;2.40;88.00
4739;DHT22;2383;48.632;10.156;2023-03-05T21:39:22;0.90;90.10
4739;DHT22;2383;48.632;10.156;2023-03-05T21:43:24;-1.60;92.40
4739;DHT22;2383;48.632;10.156;2023-03-05T21:47:27;-1.00;92.40
4739;DHT22;2383;48.632;10.156;2023-03-05T21:51:29;-1.60;92.50
4739;DHT22;2383;48.632;10.156;2023-03-05T21:55:50;-1.30;93.00
4739;DHT22;2383;48.632;10.156;2023-03-05T22:00:12;-0.40;92.40
4739;DHT22;2383;48.632;10.156;2023-03-05T22:04:14;1.10;90.60
4739;DHT22;2383;48.632;10.156;2023-03-05T22:08:16;1.50;89.70
4739;DHT22;2383;48.632;10.156;2023-03-05T22:12:18;1.60;89.80
4739;DHT22;2383;48.632;10.156;2023-03-05T22:16:30;1.30;90.20
4739;DHT22;2383;48.632;10.156;2023-03-05T22:20:33;1.70;90.30
4739;DHT22;2383;48.632;10.156;2023-03-05T22:24:38;1.60;90.40
4739;DHT22;2383;48.632;10.156;2023-03-05T22:28:40;1.40;90.40
4739;DHT22;2383;48.632;10.156;2023-03-05T22:32:43;1.60;89.80
4739;DHT22;2383;48.632;10.156;2023-03-05T22:36:45;2.00;88.90
4739;DHT22;2383;48.632;10.156;2023-03-05T22:40:48;2.20;88.40
4739;DHT22;2383;48.632;10.156;2023-03-05T22:44:55;2.00;89.00
4739;DHT22;2383;48.632;10.156;2023-03-05T22:48:58;2.30;88.70
4739;DHT22;2383;48.632;10.156;2023-03-05T22:53:00;2.50;88.10
4739;DHT22;2383;48.632;10.156;2023-03-05T22:57:02;2.10;88.70
4739;DHT22;2383;48.632;10.156;2023-03-05T23:01:12;1.20;90.10
4739;DHT22;2383;48.632;10.156;2023-03-05T23:05:14;1.80;89.60
4739;DHT22;2383;48.632;10.156;2023-03-05T23:09:17;1.70;89.80
4739;DHT22;2383;48.632;10.156;2023-03-05T23:13:18;1.80;89.80
4739;DHT22;2383;48.632;10.156;2023-03-05T23:17:20;1.80;90.00
4739;DHT22;2383;48.632;10.156;2023-03-05T23:21:22;2.00;88.90
4739;DHT22;2383;48.632;10.156;2023-03-05T23:25:27;2.30;88.80
4739;DHT22;2383;48.632;10.156;2023-03-05T23:29:30;2.60;88.50
4739;DHT22;2383;48.632;10.156;2023-03-05T23:33:39;2.20;89.30
4739;DHT22;2383;48.632;10.156;2023-03-05T23:37:41;2.10;89.90
4739;DHT22;2383;48.632;10.156;2023-03-05T23:41:43;2.40;89.60
4739;DHT22;2383;48.632;10.156;2023-03-05T23:45:46;2.60;88.40
4739;DHT22;2383;48.632;10.156;2023-03-05T23:49:48;2.70;88.00
4739;DHT22;2383;48.632;10.156;2023-03-05T23:53:50;2.70;87.70
4739;DHT22;2383;48.632;10.156;2023-03-05T23:57:53;2.70;88.10
